KPRS

Presidio Lely International Airport

Presidio, Texas, USA
METAR KPRS 182215Z AUTO 06006G14KT 020V080 10SM CLR 37/10 A2990 RMK AO2 T03650095
Observed Flight Rules
Jun-18 @ 22:15 UTC (24 minutes ago) Visual Flight Rules
Wind Visibility Clouds
60° at 6 knots
 Gusting to 14 knots
10 miles
  • Clear skies
Temperatures Readings
Current 37°C / 99°F
Dewpoint 10°C / 50°F
Humidity 19%
Altimeter 29.9" Hg
Pressure 1013 hPa
Elevation 896
METAR KPRS 182215Z AUTO 06006G14KT 020V080 10SM CLR 37/10 A2990 RMK AO2 T03650095
Observed Flight Rules
Jun-18 @ 22:15 UTC
(24 minutes ago)
VFR
Wind Visibility
60° at 6 knots
 Gusting to 14 knots
10 miles
Clouds
  • Clear skies
Temperature Dewpoint
37°C / 99°F 10°C / 50°F
Humidity Altimeter Pressure
19% 29.9" Hg 1013 hPa